createdAt,value
2018-11-11T00:00:22.436Z,26.33
2018-11-11T00:02:53.054Z,26.03
2018-11-11T00:05:22.382Z,25.60
2018-11-11T00:07:51.533Z,26.30
2018-11-11T00:10:21.041Z,27.20
2018-11-11T00:12:50.336Z,28.70
2018-11-11T00:15:19.635Z,28.47
2018-11-11T00:17:49.266Z,24.67
2018-11-11T00:20:18.421Z,21.97
2018-11-11T00:22:47.592Z,21.37
2018-11-11T00:25:16.913Z,19.70
2018-11-11T00:27:46.258Z,20.33
2018-11-11T00:30:17.007Z,20.97
2018-11-11T00:32:46.281Z,21.00
2018-11-11T00:35:15.459Z,21.10
2018-11-11T00:37:44.719Z,20.73
2018-11-11T00:40:15.190Z,20.83
2018-11-11T00:42:44.754Z,19.90
2018-11-11T00:45:15.005Z,25.87
2018-11-11T00:47:44.983Z,27.03
2018-11-11T00:50:14.145Z,28.20
2018-11-11T00:52:43.439Z,32.23
2018-11-11T00:55:15.818Z,32.00
2018-11-11T00:57:45.377Z,30.20
2018-11-11T01:00:16.373Z,27.00
2018-11-11T01:02:45.884Z,25.20
2018-11-11T01:05:15.419Z,26.73
2018-11-11T01:07:44.766Z,25.20
2018-11-11T01:10:15.417Z,23.80
2018-11-11T01:12:44.943Z,21.93
2018-11-11T01:15:15.210Z,22.57
2018-11-11T01:17:44.839Z,20.90
2018-11-11T01:20:15.020Z,23.10
2018-11-11T01:22:44.803Z,21.87
2018-11-11T01:25:14.900Z,21.77
2018-11-11T01:27:44.177Z,22.17
2018-11-11T01:30:13.662Z,22.30
2018-11-11T01:32:42.922Z,22.23
2018-11-11T01:35:13.628Z,21.93
2018-11-11T01:37:43.104Z,23.17
2018-11-11T01:40:12.417Z,22.60
2018-11-11T01:42:41.695Z,23.10
2018-11-11T01:45:14.422Z,22.40
2018-11-11T01:47:44.139Z,22.93
2018-11-11T01:50:13.789Z,23.77
2018-11-11T01:52:43.723Z,24.87
2018-11-11T01:55:13.510Z,26.43
2018-11-11T01:57:42.852Z,24.10
2018-11-11T02:00:14.480Z,25.13
2018-11-11T02:02:44.215Z,24.17
2018-11-11T02:05:13.918Z,22.57
2018-11-11T02:07:44.415Z,22.87
2018-11-11T02:10:13.581Z,22.70
2018-11-11T02:12:43.832Z,23.50
2018-11-11T02:15:14.357Z,24.13
2018-11-11T02:17:43.422Z,25.00
2018-11-11T02:20:14.519Z,24.23
2018-11-11T02:22:44.569Z,23.50
2018-11-11T02:25:13.763Z,22.97
2018-11-11T02:27:42.934Z,24.43
2018-11-11T02:30:14.953Z,25.23
2018-11-11T02:32:44.664Z,22.40
2018-11-11T02:35:13.821Z,24.50
2018-11-11T02:37:43.391Z,24.90
2018-11-11T02:40:19.915Z,22.87
2018-11-11T02:42:49.702Z,24.43
2018-11-11T02:45:19.842Z,23.73
2018-11-11T02:47:48.822Z,25.47
2018-11-11T02:50:18.907Z,25.77
2018-11-11T02:52:48.570Z,24.70
2018-11-11T02:55:18.054Z,22.73
2018-11-11T02:57:47.637Z,23.10
2018-11-11T03:00:20.063Z,21.83
2018-11-11T03:02:49.516Z,22.13
2018-11-11T03:05:19.863Z,22.33
2018-11-11T03:07:49.057Z,23.87
2018-11-11T03:10:18.649Z,22.00
2018-11-11T03:12:48.943Z,21.97
2018-11-11T03:15:18.417Z,19.43
2018-11-11T03:17:47.896Z,18.67
2018-11-11T03:20:17.618Z,18.50
2018-11-11T03:22:47.049Z,18.60
2018-11-11T03:25:16.842Z,17.67
2018-11-11T03:27:46.157Z,16.87
2018-11-11T03:30:16.531Z,19.13
2018-11-11T03:32:45.959Z,19.10
2018-11-11T03:35:15.335Z,19.53
2018-11-11T03:37:45.631Z,20.17
2018-11-11T03:40:19.265Z,20.33
2018-11-11T03:42:48.922Z,18.97
2018-11-11T03:45:19.242Z,18.90
2018-11-11T03:47:49.743Z,18.70
2018-11-11T03:50:19.161Z,18.90
2018-11-11T03:52:48.454Z,16.77
2018-11-11T03:55:18.031Z,16.90
2018-11-11T03:57:47.254Z,15.77
2018-11-11T04:00:17.049Z,17.07
2018-11-11T04:02:46.577Z,16.30
2018-11-11T04:05:16.743Z,16.73
2018-11-11T04:07:46.075Z,14.70
2018-11-11T04:10:16.613Z,15.50
2018-11-11T04:12:46.293Z,15.30
2018-11-11T04:15:16.886Z,17.37
2018-11-11T04:17:46.305Z,18.43
2018-11-11T04:20:17.002Z,18.30
2018-11-11T04:22:46.166Z,17.13
2018-11-11T04:25:16.116Z,18.03
2018-11-11T04:27:45.525Z,18.03
2018-11-11T04:30:15.518Z,16.83
2018-11-11T04:32:44.844Z,17.67
2018-11-11T04:35:14.447Z,16.10
2018-11-11T04:37:43.547Z,14.83
2018-11-11T04:40:13.515Z,15.93
2018-11-11T04:42:42.905Z,14.03
2018-11-11T04:45:14.690Z,13.50
2018-11-11T04:47:44.788Z,13.67
2018-11-11T04:50:15.107Z,14.67
2018-11-11T04:52:45.169Z,18.40
2018-11-11T04:55:14.341Z,34.07
2018-11-11T04:57:43.718Z,31.53
2018-11-11T05:00:14.046Z,29.87
2018-11-11T05:02:43.368Z,33.33
2018-11-11T05:05:13.390Z,32.30
2018-11-11T05:07:43.035Z,28.77
2018-11-11T05:10:12.950Z,26.53
2018-11-11T05:12:42.131Z,26.83
2018-11-11T05:15:12.792Z,19.00
2018-11-11T05:17:42.048Z,13.83
2018-11-11T05:20:12.274Z,14.80
2018-11-11T05:22:42.724Z,15.13
2018-11-11T05:25:13.292Z,15.73
2018-11-11T05:27:42.955Z,14.43
2018-11-11T05:30:12.920Z,15.40
2018-11-11T05:32:42.090Z,14.80
2018-11-11T05:35:12.243Z,20.37
2018-11-11T05:37:42.608Z,16.73
2018-11-11T05:40:12.760Z,17.70
2018-11-11T05:45:16.581Z,31.10
2018-11-11T05:47:45.733Z,47.67
2018-11-11T05:50:16.048Z,59.07
2018-11-11T05:52:46.225Z,57.43
2018-11-11T05:55:15.736Z,64.10
2018-11-11T05:57:44.978Z,78.10
2018-11-11T06:00:15.750Z,72.83
2018-11-11T06:02:45.339Z,68.00
2018-11-11T06:05:15.159Z,69.13
2018-11-11T06:07:44.396Z,68.97
2018-11-11T06:10:14.545Z,56.17
2018-11-11T06:12:44.915Z,59.47
2018-11-11T06:15:14.667Z,55.13
2018-11-11T06:17:44.019Z,50.10
2018-11-11T06:20:14.897Z,47.43
2018-11-11T06:22:44.355Z,43.23
2018-11-11T06:25:13.479Z,40.93
2018-11-11T06:27:42.908Z,39.27
2018-11-11T06:30:12.967Z,43.00
2018-11-11T06:32:42.278Z,37.00
2018-11-11T06:35:11.690Z,32.03
2018-11-11T06:37:41.595Z,36.27
2018-11-11T06:40:12.075Z,42.57
2018-11-11T06:42:41.520Z,44.17
2018-11-11T06:45:14.123Z,40.57
2018-11-11T06:47:44.209Z,39.57
2018-11-11T06:50:14.483Z,35.97
2018-11-11T06:52:44.177Z,36.13
2018-11-11T06:55:13.653Z,35.60
2018-11-11T06:57:42.746Z,34.53
2018-11-11T07:00:14.078Z,37.23
2018-11-11T07:02:54.042Z,29.63
2018-11-11T07:05:23.283Z,27.27
2018-11-11T07:07:52.438Z,28.40
2018-11-11T07:10:21.744Z,25.90
2018-11-11T07:12:51.340Z,24.50
2018-11-11T07:15:20.542Z,24.23
2018-11-11T07:17:49.648Z,23.73
2018-11-11T07:20:19.977Z,25.57
2018-11-11T07:22:49.437Z,25.30
2018-11-11T07:25:18.692Z,25.03
2018-11-11T07:27:48.017Z,22.93
2018-11-11T07:30:17.243Z,23.93
2018-11-11T07:32:46.547Z,20.63
2018-11-11T07:35:15.938Z,19.57
2018-11-11T07:37:45.191Z,20.67
2018-11-11T07:40:15.555Z,19.13
2018-11-11T07:42:45.098Z,20.60
2018-11-11T07:45:14.183Z,23.30
2018-11-11T07:47:43.338Z,25.97
2018-11-11T07:50:12.983Z,23.93
2018-11-11T07:52:42.262Z,26.37
2018-11-11T07:55:12.560Z,24.03
2018-11-11T07:57:42.445Z,22.97
2018-11-11T08:00:13.413Z,22.60
2018-11-11T08:02:42.961Z,20.43
2018-11-11T08:05:12.255Z,20.67
2018-11-11T08:07:41.361Z,19.70
2018-11-11T08:10:21.553Z,18.73
2018-11-11T08:12:50.822Z,19.20
2018-11-11T08:15:20.170Z,17.60
2018-11-11T08:17:49.641Z,14.47
2018-11-11T08:20:18.794Z,13.53
2018-11-11T08:22:48.004Z,12.33
2018-11-11T08:25:17.547Z,12.20
2018-11-11T08:27:46.814Z,10.47
2018-11-11T08:30:16.215Z,11.33
2018-11-11T08:32:45.873Z,9.60
2018-11-11T08:35:15.053Z,10.30
2018-11-11T08:37:44.237Z,10.83
2018-11-11T08:40:13.384Z,10.67
2018-11-11T08:42:42.593Z,11.23
2018-11-11T08:45:13.595Z,11.70
2018-11-11T08:47:43.876Z,12.13
2018-11-11T08:50:13.853Z,12.00
2018-11-11T08:52:43.163Z,12.50
2018-11-11T08:55:12.403Z,13.67
2018-11-11T08:57:41.682Z,13.30
2018-11-11T09:00:12.341Z,15.30
2018-11-11T09:02:42.183Z,14.40
2018-11-11T09:05:11.365Z,14.20
2018-11-11T09:07:40.534Z,14.17
2018-11-11T09:10:12.014Z,13.57
2018-11-11T09:12:41.262Z,14.53
2018-11-11T09:15:12.711Z,14.20
2018-11-11T09:17:42.244Z,14.83
2018-11-11T09:20:11.926Z,16.97
2018-11-11T09:22:41.481Z,16.13
2018-11-11T09:25:10.958Z,15.20
2018-11-11T09:27:41.776Z,16.17
2018-11-11T09:30:13.393Z,15.33
2018-11-11T09:32:43.197Z,16.47
2018-11-11T09:35:12.382Z,16.13
2018-11-11T09:37:41.989Z,17.10
2018-11-11T09:40:12.423Z,16.27
2018-11-11T09:42:41.899Z,16.50
2018-11-11T09:45:13.200Z,16.97
2018-11-11T09:47:42.745Z,16.23
2018-11-11T09:50:13.845Z,16.50
2018-11-11T09:52:43.177Z,16.77
2018-11-11T09:55:13.437Z,17.00
2018-11-11T09:57:42.806Z,16.50
2018-11-11T10:00:19.131Z,16.83
2018-11-11T10:03:22.287Z,17.37
2018-11-11T10:05:56.202Z,17.07
2018-11-11T10:08:32.286Z,16.77
2018-11-11T10:11:06.386Z,16.73
2018-11-11T10:13:49.196Z,17.80
2018-11-11T10:16:25.539Z,17.87
2018-11-11T10:19:33.889Z,16.67
2018-11-11T10:22:08.214Z,25.77
2018-11-11T10:24:56.245Z,17.67
2018-11-11T10:27:30.921Z,18.07
2018-11-11T10:30:04.394Z,18.80
2018-11-11T10:32:53.022Z,17.30
2018-11-11T10:35:28.539Z,18.03
2018-11-11T10:38:08.321Z,16.30
2018-11-11T10:40:42.636Z,14.77
2018-11-11T10:43:20.094Z,13.50
2018-11-11T10:45:58.405Z,14.77
2018-11-11T10:48:31.894Z,13.40
2018-11-11T10:51:02.630Z,14.43
2018-11-11T10:53:32.247Z,14.97
2018-11-11T10:56:01.571Z,13.03
2018-11-11T10:58:30.730Z,13.57
2018-11-11T11:01:04.978Z,14.83
2018-11-11T11:03:35.346Z,15.07
2018-11-11T11:06:04.965Z,15.27
2018-11-11T11:08:34.321Z,12.83
2018-11-11T11:11:03.586Z,13.40
2018-11-11T11:13:32.963Z,12.37
2018-11-11T11:16:02.279Z,12.63
2018-11-11T11:18:31.478Z,10.90
2018-11-11T11:21:01.120Z,10.07
2018-11-11T11:23:30.333Z,15.50
2018-11-11T11:25:59.618Z,12.00
2018-11-11T11:28:28.986Z,11.17
2018-11-11T11:30:58.123Z,10.80
2018-11-11T11:33:27.401Z,11.27
2018-11-11T11:35:57.053Z,11.17
2018-11-11T11:38:26.305Z,17.23
2018-11-11T11:40:55.725Z,9.60
2018-11-11T11:43:25.278Z,9.37
2018-11-11T11:45:54.623Z,10.70
2018-11-11T11:48:23.787Z,11.53
2018-11-11T11:50:53.331Z,11.23
2018-11-11T11:53:22.925Z,10.10
2018-11-11T11:55:52.019Z,10.30
2018-11-11T11:58:30.569Z,9.53
2018-11-11T12:00:59.951Z,12.00
2018-11-11T12:03:29.325Z,11.50
2018-11-11T12:05:58.787Z,9.67
2018-11-11T12:08:27.969Z,10.60
2018-11-11T12:10:57.367Z,9.23
2018-11-11T12:13:26.674Z,12.20
2018-11-11T12:15:56.079Z,13.70
2018-11-11T12:18:25.363Z,12.53
2018-11-11T12:20:54.771Z,10.37
2018-11-11T12:23:24.261Z,12.60
2018-11-11T12:25:53.644Z,11.00
2018-11-11T12:28:23.105Z,10.90
2018-11-11T12:30:52.437Z,10.77
2018-11-11T12:33:21.670Z,12.37
2018-11-11T12:35:51.362Z,11.27
2018-11-11T12:38:20.559Z,11.67
2018-11-11T12:40:49.698Z,13.10
2018-11-11T12:43:19.181Z,12.03
2018-11-11T12:45:48.353Z,11.20
2018-11-11T12:48:17.450Z,11.27
2018-11-11T12:50:47.093Z,11.80
2018-11-11T12:53:16.251Z,12.00
2018-11-11T12:55:45.446Z,12.07
2018-11-11T12:58:14.710Z,11.80
2018-11-11T13:00:43.918Z,11.83
2018-11-11T13:03:13.250Z,11.70
2018-11-11T13:05:42.680Z,12.27
2018-11-11T13:08:12.075Z,12.77
2018-11-11T13:10:41.290Z,12.47
2018-11-11T13:13:11.996Z,14.80
2018-11-11T13:15:41.219Z,12.10
2018-11-11T13:18:10.505Z,13.03
2018-11-11T13:20:39.579Z,12.80
2018-11-11T13:23:08.704Z,12.23
2018-11-11T13:25:38.420Z,12.77
2018-11-11T13:28:07.585Z,12.57
2018-11-11T13:30:36.714Z,14.83
2018-11-11T13:33:06.166Z,14.47
2018-11-11T13:35:35.388Z,13.33
2018-11-11T13:38:04.779Z,15.13
2018-11-11T13:40:34.315Z,14.83
2018-11-11T13:43:03.613Z,14.20
2018-11-11T13:45:32.824Z,15.93
2018-11-11T13:48:02.245Z,15.37
2018-11-11T13:50:31.474Z,14.03
2018-11-11T13:53:00.770Z,13.23
2018-11-11T13:55:30.114Z,12.83
2018-11-11T13:57:59.298Z,13.83
2018-11-11T14:00:28.958Z,14.47
2018-11-11T14:02:58.135Z,13.10
2018-11-11T14:05:28.361Z,15.00
2018-11-11T14:07:57.802Z,13.17
2018-11-11T14:10:27.112Z,15.47
2018-11-11T14:12:56.429Z,16.87
2018-11-11T14:15:26.167Z,16.70
2018-11-11T14:17:56.051Z,15.20
2018-11-11T14:20:26.199Z,16.50
2018-11-11T14:22:56.283Z,16.87
2018-11-11T14:25:27.642Z,17.00
2018-11-11T14:27:56.780Z,17.37
2018-11-11T14:30:26.934Z,16.77
2018-11-11T14:32:57.208Z,16.20
2018-11-11T14:35:26.472Z,15.70
2018-11-11T14:37:55.727Z,17.33
2018-11-11T14:40:26.317Z,16.80
2018-11-11T14:42:55.526Z,21.07
2018-11-11T14:45:25.179Z,19.70
2018-11-11T14:47:55.441Z,19.47
2018-11-11T14:50:25.533Z,18.97
2018-11-11T14:52:55.197Z,19.03
2018-11-11T14:55:27.069Z,19.90
2018-11-11T14:57:56.965Z,18.67
2018-11-11T15:00:28.526Z,19.87
2018-11-11T15:03:00.590Z,19.37
2018-11-11T15:05:30.358Z,17.83
2018-11-11T15:07:59.984Z,19.07
2018-11-11T15:10:29.715Z,20.30
2018-11-11T15:12:58.819Z,18.23
2018-11-11T15:15:28.275Z,20.07
2018-11-11T15:17:58.602Z,20.00
2018-11-11T15:20:27.979Z,18.93
2018-11-11T15:22:57.386Z,18.27
2018-11-11T15:25:27.823Z,19.00
2018-11-11T15:27:57.358Z,19.10
2018-11-11T15:30:28.852Z,19.37
2018-11-11T15:32:58.788Z,19.37
2018-11-11T15:35:28.000Z,19.70
2018-11-11T15:37:57.466Z,20.30
2018-11-11T15:40:28.027Z,22.23
2018-11-11T15:42:58.007Z,22.27
2018-11-11T15:45:28.566Z,22.10
2018-11-11T15:47:57.948Z,25.83
2018-11-11T15:50:30.956Z,32.53
2018-11-11T15:53:03.149Z,36.37
2018-11-11T15:55:33.930Z,33.33
2018-11-11T15:58:04.446Z,34.63
2018-11-11T16:00:34.798Z,42.50
2018-11-11T16:03:04.286Z,44.97
2018-11-11T16:05:33.522Z,51.70
2018-11-11T16:08:03.095Z,50.17
2018-11-11T16:10:33.555Z,54.70
2018-11-11T16:13:02.781Z,55.90
2018-11-11T16:15:34.820Z,61.00
2018-11-11T16:18:06.536Z,56.63
2018-11-11T16:20:35.854Z,71.77
2018-11-11T16:23:05.873Z,98.07
2018-11-11T16:25:35.475Z,106.23
2018-11-11T16:28:05.417Z,143.23
2018-11-11T16:30:35.726Z,153.77
2018-11-11T16:33:05.220Z,170.43
2018-11-11T16:35:34.349Z,172.07
2018-11-11T16:38:03.760Z,197.77
2018-11-11T16:40:35.324Z,187.10
2018-11-11T16:43:04.712Z,181.97
2018-11-11T16:45:34.827Z,187.03
2018-11-11T16:48:04.173Z,190.97
2018-11-11T16:50:34.737Z,188.63
2018-11-11T16:53:05.296Z,176.57
2018-11-11T16:55:35.526Z,176.57
2018-11-11T16:58:04.790Z,167.67
2018-11-11T17:00:35.458Z,168.57
2018-11-11T17:03:05.827Z,155.77
2018-11-11T17:05:36.549Z,152.57
2018-11-11T17:08:06.242Z,151.07
2018-11-11T17:10:36.656Z,150.50
2018-11-11T17:13:07.389Z,193.10
2018-11-11T17:15:36.571Z,222.47
2018-11-11T17:18:06.144Z,229.60
2018-11-11T17:20:35.392Z,251.50
2018-11-11T17:23:06.362Z,267.97
2018-11-11T17:25:35.617Z,288.53
2018-11-11T17:28:04.748Z,325.00
2018-11-11T17:30:34.569Z,260.70
2018-11-11T17:33:03.993Z,217.37
2018-11-11T17:35:33.448Z,199.47
2018-11-11T17:38:02.883Z,165.23
2018-11-11T17:40:32.219Z,150.53
2018-11-11T17:43:01.927Z,136.53
2018-11-11T17:45:31.309Z,140.40
2018-11-11T17:48:00.432Z,188.17
2018-11-11T17:50:30.626Z,180.97
2018-11-11T17:53:00.823Z,175.73
2018-11-11T17:55:30.494Z,171.40
2018-11-11T17:57:59.693Z,172.60
2018-11-11T18:00:30.072Z,154.37
2018-11-11T18:03:00.022Z,141.73
2018-11-11T18:05:30.306Z,121.80
2018-11-11T18:07:59.758Z,168.63
2018-11-11T18:10:29.712Z,156.33
2018-11-11T18:12:59.397Z,134.00
2018-11-11T18:15:30.612Z,133.07
2018-11-11T18:18:00.065Z,111.20
2018-11-11T18:20:30.645Z,102.00
2018-11-11T18:23:00.791Z,68.90
2018-11-11T18:25:30.080Z,59.77
2018-11-11T18:27:59.323Z,55.97
2018-11-11T18:30:30.668Z,52.67
2018-11-11T18:33:00.254Z,42.30
2018-11-11T18:35:29.531Z,45.23
2018-11-11T18:37:58.971Z,44.93
2018-11-11T18:40:29.036Z,46.27
2018-11-11T18:42:58.094Z,45.20
2018-11-11T18:45:28.831Z,47.40
2018-11-11T18:47:58.123Z,41.17
2018-11-11T18:50:29.108Z,38.03
2018-11-11T18:52:58.523Z,39.90
2018-11-11T18:55:27.726Z,34.83
2018-11-11T18:57:57.222Z,31.37
2018-11-11T19:00:27.610Z,29.33
2018-11-11T19:02:57.351Z,31.67
2018-11-11T19:05:27.357Z,33.03
2018-11-11T19:07:56.714Z,44.53
2018-11-11T19:10:28.344Z,27.87
2018-11-11T19:12:59.177Z,36.67
2018-11-11T19:15:28.646Z,53.00
2018-11-11T19:17:57.759Z,44.40
2018-11-11T19:20:27.334Z,43.53
2018-11-11T19:22:56.532Z,39.33
2018-11-11T19:25:27.282Z,39.73
2018-11-11T19:27:57.200Z,36.97
2018-11-11T19:30:27.358Z,35.43
2018-11-11T19:32:56.733Z,32.97
2018-11-11T19:35:26.287Z,30.40
2018-11-11T19:37:56.225Z,27.93
2018-11-11T19:40:26.394Z,25.20
2018-11-11T19:42:56.750Z,22.07
2018-11-11T19:45:27.295Z,19.83
2018-11-11T19:47:56.620Z,20.77
2018-11-11T19:50:26.636Z,20.07
2018-11-11T19:52:56.802Z,20.40
2018-11-11T19:55:25.935Z,20.47
2018-11-11T19:57:55.257Z,19.80
2018-11-11T20:00:29.057Z,20.73
2018-11-11T20:02:59.015Z,33.53
2018-11-11T20:05:28.319Z,28.23
2018-11-11T20:07:58.634Z,28.63
2018-11-11T20:10:28.388Z,35.20
2018-11-11T20:12:58.540Z,40.33
2018-11-11T20:15:29.528Z,44.23
2018-11-11T20:17:59.210Z,44.30
2018-11-11T20:20:42.788Z,41.93
2018-11-11T20:23:12.196Z,40.37
2018-11-11T20:25:41.511Z,43.10
2018-11-11T20:28:10.873Z,48.20
2018-11-11T20:30:40.566Z,50.30
2018-11-11T20:33:09.730Z,48.97
2018-11-11T20:35:38.847Z,52.27
2018-11-11T20:38:08.359Z,56.87
2018-11-11T20:40:37.623Z,64.87
2018-11-11T20:43:07.068Z,64.07
2018-11-11T20:45:36.564Z,73.23
2018-11-11T20:48:05.917Z,68.03
2018-11-11T20:50:35.124Z,69.73
2018-11-11T20:53:05.542Z,65.57
2018-11-11T20:55:35.110Z,66.47
2018-11-11T20:58:04.455Z,65.97
2018-11-11T21:00:35.968Z,76.93
2018-11-11T21:03:05.632Z,82.97
2018-11-11T21:05:34.835Z,84.23
2018-11-11T21:08:04.257Z,86.30
2018-11-11T21:10:33.615Z,90.73
2018-11-11T21:13:03.126Z,82.77
2018-11-11T21:15:32.879Z,87.70
2018-11-11T21:18:01.941Z,77.60
2018-11-11T21:20:32.478Z,62.30
2018-11-11T21:23:01.695Z,74.87
2018-11-11T21:25:31.091Z,83.60
2018-11-11T21:28:00.715Z,92.23
2018-11-11T21:30:30.981Z,87.77
2018-11-11T21:33:00.496Z,91.00
2018-11-11T21:35:29.694Z,94.37
2018-11-11T21:37:58.922Z,101.53
2018-11-11T21:40:28.751Z,101.10
2018-11-11T21:42:58.138Z,95.03
2018-11-11T21:45:28.150Z,92.03
2018-11-11T21:47:57.736Z,88.90
2018-11-11T21:50:27.711Z,91.30
2018-11-11T21:53:17.233Z,88.73
2018-11-11T21:55:46.445Z,80.30
2018-11-11T21:58:15.711Z,82.73
2018-11-11T22:00:44.995Z,80.73
2018-11-11T22:03:14.313Z,80.47
2018-11-11T22:05:43.610Z,78.77
2018-11-11T22:08:13.069Z,79.43
2018-11-11T22:10:42.374Z,70.33
2018-11-11T22:13:11.674Z,74.60
2018-11-11T22:15:41.311Z,62.33
2018-11-11T22:18:10.742Z,59.23
2018-11-11T22:20:39.866Z,50.60
2018-11-11T22:23:09.278Z,42.87
2018-11-11T22:25:38.547Z,40.73
2018-11-11T22:28:08.038Z,36.73
2018-11-11T22:30:37.698Z,28.67
2018-11-11T22:33:06.948Z,24.37
2018-11-11T22:35:36.200Z,22.57
2018-11-11T22:38:05.666Z,22.47
2018-11-11T22:40:35.035Z,24.37
2018-11-11T22:43:04.223Z,21.90
2018-11-11T22:45:33.609Z,22.00
2018-11-11T22:48:02.875Z,19.50
2018-11-11T22:50:32.150Z,19.03
2018-11-11T22:53:01.278Z,21.37
2018-11-11T22:55:30.664Z,23.73
2018-11-11T22:57:59.807Z,22.13
2018-11-11T23:00:30.271Z,20.30
2018-11-11T23:02:59.584Z,16.60
2018-11-11T23:05:28.664Z,16.47
2018-11-11T23:07:58.199Z,19.70
2018-11-11T23:10:27.479Z,16.67
2018-11-11T23:12:56.663Z,18.27
2018-11-11T23:15:25.904Z,18.80
2018-11-11T23:17:55.069Z,18.97
2018-11-11T23:20:24.366Z,19.10
2018-11-11T23:22:53.747Z,20.60
2018-11-11T23:25:23.069Z,20.27
2018-11-11T23:27:52.238Z,22.50
2018-11-11T23:30:22.778Z,20.43
2018-11-11T23:32:52.364Z,20.87
2018-11-11T23:35:21.583Z,18.87
2018-11-11T23:37:51.189Z,18.53
2018-11-11T23:40:20.505Z,19.23
2018-11-11T23:42:49.715Z,18.77
2018-11-11T23:45:19.069Z,19.90
2018-11-11T23:47:48.200Z,21.00
2018-11-11T23:50:18.655Z,19.70
2018-11-11T23:52:48.234Z,19.50
2018-11-11T23:55:18.512Z,18.73
2018-11-11T23:57:47.837Z,17.10
